Time;durP1;ratioP1;P1;durP2;ratioP2;P2;SDS_P1;SDS_P2;PMS_P1;PMS_P2;Temp;Humidity;BMP_temperature;BMP_pressure;BME280_temperature;BME280_humidity;BME280_pressure;Samples;Min_cycle;Max_cycle;Signal;HPM_P1;HPM_P2
2022/06/23 11:46:34;;;;;;;4.80;3.70;;;27.90;99.90;;;;;;5091199;28;20665;-71
2022/06/23 11:49:11;;;;;;;3.85;3.42;;;27.90;99.90;;;;;;5070904;28;20176;-71
2022/06/23 11:51:44;;;;;;;4.75;3.55;;;28.00;99.90;;;;;;5070948;28;20573;-72
2022/06/23 11:54:12;;;;;;;3.92;3.58;;;27.90;99.90;;;;;;5071045;28;20246;-71
2022/06/23 11:57:04;;;;;;;4.15;3.00;;;28.00;99.90;;;;;;5070810;28;20225;-71
2022/06/23 11:59:41;;;;;;;5.75;3.22;;;28.10;99.90;;;;;;5070833;28;20179;-71
2022/06/23 12:02:07;;;;;;;3.25;2.70;;;28.20;99.90;;;;;;5069572;28;20178;-71
2022/06/23 12:05:09;;;;;;;3.83;2.70;;;28.30;99.90;;;;;;5069434;28;20229;-72
2022/06/23 12:08:03;;;;;;;6.13;2.92;;;28.60;99.90;;;;;;5070655;28;20174;-71
2022/06/23 12:10:32;;;;;;;3.10;2.83;;;28.80;99.90;;;;;;5070768;28;20589;-72
2022/06/23 12:13:01;;;;;;;3.58;3.17;;;28.90;99.90;;;;;;5070625;28;20156;-71
2022/06/23 12:15:31;;;;;;;3.40;3.10;;;28.90;99.90;;;;;;5069285;28;20172;-70
2022/06/23 12:18:00;;;;;;;4.35;2.88;;;29.00;99.90;;;;;;5070524;28;20172;-74
2022/06/23 12:20:46;;;;;;;5.65;3.35;;;29.10;99.90;;;;;;5070352;28;20168;-76
2022/06/23 12:23:15;;;;;;;3.80;2.95;;;29.30;99.90;;;;;;5070505;28;20160;-76
2022/06/23 12:26:14;;;;;;;4.70;3.50;;;29.50;99.90;;;;;;5070403;28;20203;-72
2022/06/23 12:28:45;;;;;;;5.80;2.85;;;29.60;99.90;;;;;;5070142;28;20192;-72
2022/06/23 12:31:31;;;;;;;4.75;3.00;;;29.60;99.90;;;;;;5070201;28;20247;-73
2022/06/23 12:34:18;;;;;;;4.28;2.60;;;29.80;99.90;;;;;;5070286;28;20163;-73
2022/06/23 12:37:15;;;;;;;3.28;2.30;;;30.00;99.90;;;;;;5070106;28;20168;-71
2022/06/23 12:40:02;;;;;;;3.38;3.08;;;30.20;99.90;;;;;;5068863;28;20255;-71
2022/06/23 12:42:36;;;;;;;2.75;2.58;;;30.30;99.90;;;;;;5070019;28;20163;-71
2022/06/23 12:45:31;;;;;;;2.90;2.70;;;30.40;99.90;;;;;;5069718;28;20349;-71
2022/06/23 12:48:15;;;;;;;5.78;2.60;;;30.50;99.90;;;;;;5071631;28;20675;-71
2022/06/23 12:51:02;;;;;;;3.47;2.85;;;30.60;99.90;;;;;;5069693;28;20172;-71
2022/06/23 12:53:44;;;;;;;2.80;2.60;;;30.80;99.90;;;;;;5068600;28;20193;-76
2022/06/23 12:56:41;;;;;;;5.00;2.88;;;31.00;99.90;;;;;;5063999;28;20211;-75
2022/06/23 12:59:15;;;;;;;42.60;7.82;;;31.10;99.90;;;;;;5056376;28;20168;-75
2022/06/23 13:01:47;;;;;;;42.50;7.55;;;31.20;99.90;;;;;;5056413;28;20165;-73
2022/06/23 13:04:21;;;;;;;45.78;6.43;;;31.40;99.90;;;;;;5056210;28;20242;-72
2022/06/23 13:07:04;;;;;;;42.53;6.60;;;31.50;99.90;;;;;;5056267;28;20160;-71
2022/06/23 13:10:01;;;;;;;47.88;6.97;;;31.70;99.90;;;;;;5056078;28;20618;-71
2022/06/23 13:12:42;;;;;;;46.95;6.72;;;31.80;99.90;;;;;;5056118;28;20658;-71
2022/06/23 13:15:31;;;;;;;48.63;6.28;;;32.00;99.90;;;;;;5056208;28;20626;-71
2022/06/23 13:18:03;;;;;;;49.22;6.93;;;32.00;99.90;;;;;;5054300;28;20180;-71
2022/06/23 13:20:47;;;;;;;49.08;5.90;;;32.20;99.90;;;;;;5056017;28;20255;-71
2022/06/23 13:23:15;;;;;;;54.47;6.85;;;32.20;99.90;;;;;;5054842;28;20528;-71
2022/06/23 13:25:50;;;;;;;55.25;6.63;;;32.20;99.90;;;;;;5055855;28;20223;-70
2022/06/23 13:28:34;;;;;;;55.20;6.93;;;32.30;99.90;;;;;;5055808;28;20519;-74
2022/06/23 13:31:24;;;;;;;57.38;7.60;;;32.50;99.90;;;;;;5055740;28;20176;-71
2022/06/23 13:33:57;;;;;;;60.30;7.85;;;32.50;99.90;;;;;;5055933;28;20196;-71
2022/06/23 13:37:00;;;;;;;60.47;8.20;;;32.50;99.90;;;;;;5055771;28;20172;-75
2022/06/23 13:39:50;;;;;;;62.15;8.80;;;32.60;99.90;;;;;;5055220;28;20184;-75
2022/06/23 13:42:29;;;;;;;60.53;9.30;;;32.80;99.90;;;;;;5055518;28;20559;-74
2022/06/23 13:45:04;;;;;;;63.05;9.80;;;32.80;99.90;;;;;;5054064;28;20612;-74
2022/06/23 13:47:56;;;;;;;62.38;11.20;;;32.70;99.90;;;;;;5055531;28;20246;-75
2022/06/23 13:50:31;;;;;;;65.85;14.60;;;32.70;99.90;;;;;;5054310;28;20315;-72
2022/06/23 13:53:05;;;;;;;63.22;9.80;;;32.80;99.90;;;;;;5054233;28;20237;-72
2022/06/23 13:55:45;;;;;;;63.20;12.15;;;32.90;99.90;;;;;;5055459;28;20609;-79
2022/06/23 13:58:39;;;;;;;65.28;16.00;;;32.90;99.90;;;;;;5055106;28;20169;-73
2022/06/23 14:01:27;;;;;;;63.17;10.40;;;33.10;99.90;;;;;;5054958;28;20180;-75
2022/06/23 14:04:31;;;;;;;61.90;12.50;;;33.10;99.90;;;;;;5054979;28;20165;-75
2022/06/23 14:07:07;;;;;;;65.13;16.60;;;33.20;99.90;;;;;;5054673;28;20172;-74
2022/06/23 14:09:41;;;;;;;65.35;17.70;;;33.30;99.90;;;;;;5054230;28;20573;-74
2022/06/23 14:12:10;;;;;;;76.90;42.28;;;33.50;99.90;;;;;;5054554;28;20184;-74
2022/06/23 14:14:38;;;;;;;77.28;41.40;;;33.60;99.90;;;;;;5054549;28;20168;-74
2022/06/23 14:17:25;;;;;;;74.82;32.65;;;33.30;99.90;;;;;;5054570;28;20173;-80
2022/06/23 14:19:57;;;;;;;66.97;20.88;;;32.70;99.90;;;;;;5054502;28;20696;-80
2022/06/23 14:22:53;;;;;;;62.38;11.18;;;31.90;99.90;;;;;;5054800;28;20184;-80
2022/06/23 14:25:43;;;;;;;61.92;10.52;;;31.70;99.90;;;;;;5054397;28;20204;-79
2022/06/23 14:28:38;;;;;;;65.32;14.90;;;32.20;99.90;;;;;;5054614;28;20164;-73
2022/06/23 14:31:18;;;;;;;63.10;12.65;;;32.60;99.90;;;;;;5054518;28;20175;-73
2022/06/23 14:33:52;;;;;;;64.30;11.48;;;32.30;99.90;;;;;;5053005;28;20168;-73
2022/06/23 14:36:39;;;;;;;62.17;10.77;;;32.10;99.90;;;;;;5053011;28;20178;-72
2022/06/23 14:39:41;;;;;;;64.60;13.32;;;32.30;99.90;;;;;;5054404;28;20568;-72
2022/06/23 14:42:36;;;;;;;71.40;27.77;;;32.80;99.90;;;;;;5053137;28;20172;-78
2022/06/23 14:45:19;;;;;;;74.72;33.72;;;33.30;99.90;;;;;;5051747;28;20232;-76
2022/06/23 14:48:16;;;;;;;76.47;40.70;;;33.60;99.90;;;;;;5052703;28;20687;-75
2022/06/23 14:50:53;;;;;;;99.63;77.65;;;33.80;99.70;;;;;;5054171;28;20218;-75
2022/06/23 14:53:39;;;;;;;96.50;67.90;;;33.90;99.00;;;;;;5054093;28;20192;-73
2022/06/23 14:56:18;;;;;;;167.57;151.13;;;34.00;99.30;;;;;;5052541;28;20532;-74
2022/06/23 14:59:09;;;;;;;254.23;230.95;;;34.20;97.90;;;;;;5052673;28;20175;-74
2022/06/23 15:02:12;;;;;;;334.02;304.60;;;34.50;97.30;;;;;;5052580;28;20177;-74
2022/06/23 15:04:54;;;;;;;384.63;349.88;;;34.90;95.80;;;;;;5053911;28;20661;-74
2022/06/23 15:07:24;;;;;;;434.23;394.08;;;34.80;94.70;;;;;;5053730;28;20188;-75
2022/06/23 15:09:53;;;;;;;429.27;388.50;;;34.80;90.90;;;;;;5053976;28;20625;-75
2022/06/23 15:12:40;;;;;;;409.95;374.58;;;34.80;91.90;;;;;;5052423;28;20260;-75
2022/06/23 15:15:37;;;;;;;383.98;350.52;;;34.90;93.70;;;;;;5053708;28;20168;-75
2022/06/23 15:18:29;;;;;;;395.38;360.33;;;35.10;93.20;;;;;;5053533;28;20225;-76
2022/06/23 15:20:55;;;;;;;408.27;371.75;;;35.10;92.60;;;;;;5053450;28;20651;-77
2022/06/23 15:23:49;;;;;;;436.42;394.83;;;35.10;92.30;;;;;;5052271;28;20172;-72
2022/06/23 15:26:17;;;;;;;449.25;407.48;;;35.10;92.30;;;;;;5053440;28;20625;-72
2022/06/23 15:28:42;;;;;;;511.70;462.80;;;35.40;91.80;;;;;;5051353;28;20680;-72
2022/06/23 15:31:46;;;;;;;470.45;427.20;;;35.30;90.90;;;;;;5051950;28;20170;-73
2022/06/23 15:34:32;;;;;;;476.80;432.25;;;35.40;92.60;;;;;;5043932;28;20176;-74
2022/06/23 15:37:19;;;;;;;507.52;459.15;;;35.50;91.40;;;;;;5053413;28;20622;-75
2022/06/23 15:39:45;;;;;;;539.35;488.63;;;35.60;90.90;;;;;;5052430;28;20176;-73
2022/06/23 15:42:19;;;;;;;563.65;512.28;;;35.60;90.50;;;;;;5052572;28;20211;-73
2022/06/23 15:45:08;;;;;;;619.55;563.08;;;35.80;90.40;;;;;;5052565;28;20231;-72
2022/06/23 15:47:46;;;;;;;560.55;509.67;;;35.80;90.40;;;;;;5051669;28;20606;-74
2022/06/23 15:50:30;;;;;;;536.42;485.63;;;35.80;91.10;;;;;;5053183;28;20168;-73
2022/06/23 15:53:11;;;;;;;560.90;509.30;;;35.70;90.80;;;;;;5053024;28;20160;-73
2022/06/23 15:55:56;;;;;;;537.40;486.70;;;35.70;91.20;;;;;;5051619;28;20182;-73
2022/06/23 15:58:46;;;;;;;566.78;514.45;;;35.80;91.20;;;;;;5053038;28;20674;-73
2022/06/23 16:01:35;;;;;;;623.92;567.90;;;36.00;90.90;;;;;;5053180;28;20195;-72
2022/06/23 16:04:18;;;;;;;618.20;562.28;;;36.10;90.50;;;;;;5051847;28;20275;-73
2022/06/23 16:06:48;;;;;;;636.45;579.70;;;36.30;90.40;;;;;;5052595;28;20215;-71
2022/06/23 16:09:27;;;;;;;587.42;534.17;;;36.40;90.10;;;;;;5051137;28;20168;-71
2022/06/23 16:11:56;;;;;;;621.53;565.75;;;36.40;88.60;;;;;;5052101;28;20211;-70
2022/06/23 16:14:21;;;;;;;571.63;519.13;;;36.20;90.20;;;;;;5051270;28;20192;-70
2022/06/23 16:16:57;;;;;;;604.55;549.60;;;36.10;90.20;;;;;;5052666;28;20165;-71
2022/06/23 16:19:31;;;;;;;511.75;463.48;;;36.20;89.60;;;;;;5052807;28;20191;-71
2022/06/23 16:22:09;;;;;;;524.05;474.65;;;36.00;87.30;;;;;;5052689;28;20161;-73
2022/06/23 16:25:00;;;;;;;528.17;477.45;;;36.10;88.00;;;;;;5052790;28;20218;-73
2022/06/23 16:27:47;;;;;;;538.03;487.33;;;36.20;88.60;;;;;;5052758;28;20255;-74
2022/06/23 16:30:42;;;;;;;547.45;495.77;;;36.20;88.10;;;;;;5052585;28;20160;-74
2022/06/23 16:33:26;;;;;;;601.28;547.45;;;36.30;88.00;;;;;;5056458;28;20657;-74
2022/06/23 16:36:29;;;;;;;448.63;405.00;;;36.50;90.00;;;;;;5056371;28;20646;-74
2022/06/23 16:39:06;;;;;;;419.77;378.70;;;36.60;89.20;;;;;;5055793;28;20180;-72
2022/06/23 16:42:01;;;;;;;453.27;410.13;;;36.80;87.00;;;;;;5056393;28;20231;-71
2022/06/23 16:44:29;;;;;;;453.13;409.55;;;37.00;86.70;;;;;;5056120;28;20216;-71
2022/06/23 16:46:55;;;;;;;436.17;396.13;;;37.00;86.70;;;;;;5054986;28;20664;-71
2022/06/23 16:49:30;;;;;;;280.75;254.32;;;36.70;84.80;;;;;;5056139;28;20177;-71
2022/06/23 16:52:05;;;;;;;278.02;251.45;;;36.70;83.10;;;;;;5056228;28;20172;-71
2022/06/23 16:55:06;;;;;;;302.95;274.17;;;36.60;83.10;;;;;;5056062;28;20187;-71
2022/06/23 16:57:44;;;;;;;312.15;283.35;;;36.40;82.70;;;;;;5055974;28;20642;-71
2022/06/23 17:00:14;;;;;;;374.58;340.48;;;36.60;84.60;;;;;;5055988;28;20173;-71
2022/06/23 17:03:05;;;;;;;240.40;217.57;;;36.60;84.70;;;;;;5056049;28;20167;-74
2022/06/23 17:05:36;;;;;;;275.33;249.35;;;36.60;81.50;;;;;;5054514;28;20554;-75
2022/06/23 17:08:25;;;;;;;244.85;221.60;;;36.60;81.80;;;;;;5055941;28;20576;-75
2022/06/23 17:11:18;;;;;;;250.95;227.20;;;36.40;81.80;;;;;;5055828;28;20165;-74
2022/06/23 17:13:48;;;;;;;233.52;211.35;;;36.20;84.20;;;;;;5055433;28;20234;-73
2022/06/23 17:16:47;;;;;;;309.05;280.42;;;36.30;83.60;;;;;;5055580;28;20204;-75
2022/06/23 17:19:39;;;;;;;264.25;240.82;;;36.30;84.40;;;;;;5055527;28;20172;-74
2022/06/23 17:22:10;;;;;;;232.73;210.75;;;36.40;80.80;;;;;;5054504;28;20183;-75
2022/06/23 17:24:41;;;;;;;254.80;232.25;;;36.40;82.50;;;;;;5054671;28;20179;-75
2022/06/23 17:27:35;;;;;;;256.08;233.57;;;36.40;82.70;;;;;;5054411;28;20177;-75
2022/06/23 17:30:06;;;;;;;269.35;243.88;;;36.20;82.10;;;;;;5055912;28;20168;-75
2022/06/23 17:33:10;;;;;;;247.88;225.50;;;36.10;84.30;;;;;;5055471;28;20188;-75
2022/06/23 17:35:40;;;;;;;277.25;251.57;;;35.80;83.80;;;;;;5053498;28;20203;-75
2022/06/23 17:44:51;;;;;;;394.65;359.15;;;35.60;84.60;;;;;;5055426;28;20219;-75
2022/06/23 17:47:33;;;;;;;436.23;397.60;;;35.00;87.60;;;;;;5055391;28;20225;-75
2022/06/23 17:49:59;;;;;;;447.23;407.60;;;34.70;86.80;;;;;;5055320;28;20553;-75
2022/06/23 17:52:29;;;;;;;428.25;388.67;;;34.70;87.70;;;;;;5055042;28;20627;-74
2022/06/23 17:54:59;;;;;;;459.85;418.15;;;34.70;89.80;;;;;;5053922;28;20200;-74
2022/06/23 17:57:37;;;;;;;415.38;378.13;;;34.80;88.20;;;;;;5055138;28;20625;-75
2022/06/23 18:00:06;;;;;;;432.13;394.20;;;34.80;86.40;;;;;;5054889;28;20177;-75
2022/06/23 18:02:43;;;;;;;450.52;410.13;;;34.90;88.10;;;;;;5054437;28;20161;-75
2022/06/23 18:05:19;;;;;;;431.98;392.40;;;34.70;87.70;;;;;;5054193;28;20186;-74
2022/06/23 18:07:59;;;;;;;457.60;416.77;;;34.30;89.40;;;;;;5054770;28;20222;-74
2022/06/23 18:10:32;;;;;;;435.48;396.17;;;34.10;87.60;;;;;;5055124;28;20160;-74
2022/06/23 18:13:02;;;;;;;493.48;447.40;;;33.60;88.10;;;;;;5054817;28;20645;-75
2022/06/23 18:15:30;;;;;;;529.63;481.20;;;33.30;90.90;;;;;;5054481;28;20215;-74
2022/06/23 18:18:21;;;;;;;528.15;481.05;;;33.00;91.40;;;;;;5053769;28;20176;-74
2022/06/23 18:20:58;;;;;;;557.65;507.08;;;33.00;92.40;;;;;;5054754;28;20169;-74
2022/06/23 18:23:37;;;;;;;517.55;470.10;;;33.20;92.10;;;;;;5054707;28;20169;-75
2022/06/23 18:26:22;;;;;;;568.78;517.60;;;33.40;91.20;;;;;;5054832;28;20598;-74
2022/06/23 18:29:00;;;;;;;581.22;529.97;;;33.40;92.70;;;;;;5054547;28;20198;-74
2022/06/23 18:31:47;;;;;;;577.50;525.97;;;33.40;92.30;;;;;;5054346;28;20246;-74
2022/06/23 18:34:16;;;;;;;591.50;539.47;;;33.40;93.00;;;;;;5054320;28;20685;-75
2022/06/23 18:36:49;;;;;;;589.00;535.40;;;33.40;92.40;;;;;;5054464;28;20169;-74
2022/06/23 18:39:27;;;;;;;593.20;539.95;;;33.50;93.60;;;;;;5053345;28;20238;-74
2022/06/23 18:42:15;;;;;;;593.25;539.10;;;33.40;93.30;;;;;;5054438;28;20172;-74
2022/06/23 18:44:47;;;;;;;605.47;550.88;;;33.30;93.30;;;;;;5054294;28;20709;-74
2022/06/23 18:47:29;;;;;;;562.85;511.20;;;32.80;94.40;;;;;;5054429;28;20193;-75
2022/06/23 18:50:21;;;;;;;550.47;499.58;;;32.20;95.80;;;;;;5054200;28;20648;-75
2022/06/23 18:52:55;;;;;;;442.70;402.95;;;31.40;96.90;;;;;;5054162;28;20575;-74
2022/06/23 18:55:51;;;;;;;394.92;360.55;;;30.80;99.20;;;;;;5053582;28;20552;-74
2022/06/23 18:58:29;;;;;;;343.75;315.38;;;30.40;99.90;;;;;;5050494;28;20231;-74
2022/06/23 19:01:21;;;;;;;283.52;258.35;;;30.10;99.90;;;;;;5052576;28;20182;-75
2022/06/23 19:03:56;;;;;;;138.70;123.75;;;29.80;99.90;;;;;;5052875;28;20241;-74
2022/06/23 19:06:33;;;;;;;114.93;93.32;;;29.60;99.90;;;;;;5052839;28;20183;-74
2022/06/23 19:09:03;;;;;;;107.93;85.05;;;29.30;99.90;;;;;;5054018;28;20172;-74
2022/06/23 19:11:51;;;;;;;99.43;70.75;;;29.10;99.90;;;;;;5053811;28;20164;-74
2022/06/23 19:14:34;;;;;;;91.45;58.75;;;28.80;99.90;;;;;;5053645;28;20168;-74
